sensor_id;sensor_type;location;lat;lon;timestamp;pressure;altitude;pressure_sealevel;temperature;humidity
5500;BME280;2772;42.700;23.304;2022-12-07T00:01:41;95092.19;;;8.96;100.00
5500;BME280;2772;42.700;23.304;2022-12-07T00:04:11;95094.25;;;8.99;100.00
5500;BME280;2772;42.700;23.304;2022-12-07T00:06:39;95098.66;;;9.03;100.00
5500;BME280;2772;42.700;23.304;2022-12-07T00:09:11;95091.59;;;8.99;100.00
5500;BME280;2772;42.700;23.304;2022-12-07T00:11:38;95099.84;;;8.97;100.00
5500;BME280;2772;42.700;23.304;2022-12-07T00:14:07;95096.88;;;8.85;100.00
5500;BME280;2772;42.700;23.304;2022-12-07T00:16:36;95079.78;;;8.91;100.00
5500;BME280;2772;42.700;23.304;2022-12-07T00:19:04;95082.25;;;8.88;100.00
5500;BME280;2772;42.700;23.304;2022-12-07T00:21:34;95082.25;;;8.88;100.00
5500;BME280;2772;42.700;23.304;2022-12-07T00:24:10;95083.63;;;8.99;100.00
5500;BME280;2772;42.700;23.304;2022-12-07T00:26:39;95090.00;;;8.98;100.00
5500;BME280;2772;42.700;23.304;2022-12-07T00:29:07;95084.81;;;8.93;100.00
5500;BME280;2772;42.700;23.304;2022-12-07T00:31:36;95087.63;;;8.96;100.00
5500;BME280;2772;42.700;23.304;2022-12-07T00:34:04;95087.25;;;9.03;100.00
5500;BME280;2772;42.700;23.304;2022-12-07T00:36:31;95077.50;;;9.12;100.00
5500;BME280;2772;42.700;23.304;2022-12-07T00:38:59;95082.09;;;9.20;100.00
5500;BME280;2772;42.700;23.304;2022-12-07T00:41:28;95097.09;;;9.16;100.00
5500;BME280;2772;42.700;23.304;2022-12-07T00:43:56;95084.28;;;9.18;100.00
5500;BME280;2772;42.700;23.304;2022-12-07T00:46:26;95083.50;;;9.17;100.00
5500;BME280;2772;42.700;23.304;2022-12-07T00:48:53;95080.53;;;9.19;100.00
5500;BME280;2772;42.700;23.304;2022-12-07T00:51:23;95077.38;;;9.17;100.00
5500;BME280;2772;42.700;23.304;2022-12-07T00:53:50;95080.34;;;9.15;100.00
5500;BME280;2772;42.700;23.304;2022-12-07T00:56:19;95076.13;;;9.14;100.00
5500;BME280;2772;42.700;23.304;2022-12-07T00:58:52;95080.94;;;9.12;100.00
5500;BME280;2772;42.700;23.304;2022-12-07T01:01:19;95072.56;;;9.19;100.00
5500;BME280;2772;42.700;23.304;2022-12-07T01:03:46;95076.69;;;9.25;100.00
5500;BME280;2772;42.700;23.304;2022-12-07T01:06:14;95071.78;;;9.18;100.00
5500;BME280;2772;42.700;23.304;2022-12-07T01:08:41;95070.81;;;9.14;100.00
5500;BME280;2772;42.700;23.304;2022-12-07T01:11:11;95077.19;;;9.13;100.00
5500;BME280;2772;42.700;23.304;2022-12-07T01:13:38;95080.75;;;9.09;100.00
5500;BME280;2772;42.700;23.304;2022-12-07T01:16:07;95075.94;;;9.11;100.00
5500;BME280;2772;42.700;23.304;2022-12-07T01:18:36;95065.59;;;9.09;100.00
5500;BME280;2772;42.700;23.304;2022-12-07T01:21:05;95063.59;;;9.15;100.00
5500;BME280;2772;42.700;23.304;2022-12-07T01:23:33;95061.44;;;9.17;100.00
5500;BME280;2772;42.700;23.304;2022-12-07T01:26:02;95061.75;;;9.15;100.00
5500;BME280;2772;42.700;23.304;2022-12-07T01:28:29;95062.03;;;9.14;100.00
5500;BME280;2772;42.700;23.304;2022-12-07T01:30:57;95064.22;;;9.12;100.00
5500;BME280;2772;42.700;23.304;2022-12-07T01:33:28;95065.00;;;9.12;100.00
5500;BME280;2772;42.700;23.304;2022-12-07T01:36:00;95058.22;;;9.06;100.00
5500;BME280;2772;42.700;23.304;2022-12-07T01:38:28;95056.38;;;9.07;100.00
5500;BME280;2772;42.700;23.304;2022-12-07T01:40:54;95059.09;;;9.15;100.00
5500;BME280;2772;42.700;23.304;2022-12-07T01:43:23;95060.69;;;9.16;100.00
5500;BME280;2772;42.700;23.304;2022-12-07T01:45:50;95066.19;;;9.06;100.00
5500;BME280;2772;42.700;23.304;2022-12-07T01:48:19;95068.28;;;8.96;100.00
5500;BME280;2772;42.700;23.304;2022-12-07T01:50:51;95070.63;;;8.97;100.00
5500;BME280;2772;42.700;23.304;2022-12-07T01:53:21;95062.38;;;8.99;100.00
5500;BME280;2772;42.700;23.304;2022-12-07T01:55:52;95063.72;;;8.96;100.00
5500;BME280;2772;42.700;23.304;2022-12-07T01:58:20;95065.59;;;8.82;100.00
5500;BME280;2772;42.700;23.304;2022-12-07T02:00:48;95050.78;;;8.81;100.00
5500;BME280;2772;42.700;23.304;2022-12-07T02:03:18;95046.66;;;8.62;100.00
5500;BME280;2772;42.700;23.304;2022-12-07T02:05:46;95055.78;;;8.56;100.00
5500;BME280;2772;42.700;23.304;2022-12-07T02:08:19;95051.25;;;8.56;100.00
5500;BME280;2772;42.700;23.304;2022-12-07T02:10:48;95051.97;;;8.62;100.00
5500;BME280;2772;42.700;23.304;2022-12-07T02:13:17;95044.00;;;8.62;100.00
5500;BME280;2772;42.700;23.304;2022-12-07T02:18:58;95048.44;;;8.21;100.00
5500;BME280;2772;42.700;23.304;2022-12-07T02:21:36;95048.75;;;8.19;100.00
5500;BME280;2772;42.700;23.304;2022-12-07T02:24:35;95037.28;;;8.24;100.00
5500;BME280;2772;42.700;23.304;2022-12-07T02:27:25;95036.06;;;8.16;100.00
5500;BME280;2772;42.700;23.304;2022-12-07T02:30:00;95035.56;;;8.14;100.00
5500;BME280;2772;42.700;23.304;2022-12-07T02:32:37;95031.94;;;8.10;100.00
5500;BME280;2772;42.700;23.304;2022-12-07T02:35:09;95026.59;;;7.96;100.00
5500;BME280;2772;42.700;23.304;2022-12-07T02:37:42;95026.78;;;7.86;100.00
5500;BME280;2772;42.700;23.304;2022-12-07T02:40:19;95030.44;;;7.72;100.00
5500;BME280;2772;42.700;23.304;2022-12-07T02:42:51;95028.16;;;7.65;100.00
5500;BME280;2772;42.700;23.304;2022-12-07T02:45:22;95028.34;;;7.55;100.00
5500;BME280;2772;42.700;23.304;2022-12-07T02:47:53;95018.56;;;7.69;100.00
5500;BME280;2772;42.700;23.304;2022-12-07T02:50:24;95021.00;;;7.66;100.00
5500;BME280;2772;42.700;23.304;2022-12-07T02:52:51;95020.22;;;7.65;100.00
5500;BME280;2772;42.700;23.304;2022-12-07T02:55:21;95022.94;;;7.60;100.00
5500;BME280;2772;42.700;23.304;2022-12-07T02:58:15;95019.72;;;7.63;100.00
5500;BME280;2772;42.700;23.304;2022-12-07T03:00:54;95007.72;;;7.52;100.00
5500;BME280;2772;42.700;23.304;2022-12-07T03:03:25;95003.53;;;7.65;100.00
5500;BME280;2772;42.700;23.304;2022-12-07T03:06:08;95002.56;;;7.74;100.00
5500;BME280;2772;42.700;23.304;2022-12-07T03:08:44;95001.00;;;7.73;100.00
5500;BME280;2772;42.700;23.304;2022-12-07T03:11:16;95004.38;;;7.79;100.00
5500;BME280;2772;42.700;23.304;2022-12-07T03:13:49;95004.22;;;7.70;100.00
5500;BME280;2772;42.700;23.304;2022-12-07T03:16:21;94999.06;;;7.79;100.00
5500;BME280;2772;42.700;23.304;2022-12-07T03:18:53;94995.91;;;7.77;100.00
5500;BME280;2772;42.700;23.304;2022-12-07T03:21:25;94997.09;;;7.84;100.00
5500;BME280;2772;42.700;23.304;2022-12-07T03:23:56;95001.13;;;7.82;100.00
5500;BME280;2772;42.700;23.304;2022-12-07T03:26:30;94996.13;;;7.80;100.00
5500;BME280;2772;42.700;23.304;2022-12-07T03:29:00;95002.78;;;7.78;100.00
5500;BME280;2772;42.700;23.304;2022-12-07T03:31:32;95015.09;;;7.55;100.00
5500;BME280;2772;42.700;23.304;2022-12-07T03:34:05;95006.94;;;7.52;100.00
5500;BME280;2772;42.700;23.304;2022-12-07T03:36:40;95015.84;;;7.56;100.00
5500;BME280;2772;42.700;23.304;2022-12-07T03:39:17;95004.31;;;7.65;100.00
5500;BME280;2772;42.700;23.304;2022-12-07T03:41:48;94999.38;;;7.77;100.00
5500;BME280;2772;42.700;23.304;2022-12-07T03:44:15;95006.84;;;7.89;100.00
5500;BME280;2772;42.700;23.304;2022-12-07T03:46:49;95005.19;;;7.93;100.00
5500;BME280;2772;42.700;23.304;2022-12-07T03:49:23;95004.91;;;7.94;100.00
5500;BME280;2772;42.700;23.304;2022-12-07T03:51:55;95006.25;;;7.92;100.00
5500;BME280;2772;42.700;23.304;2022-12-07T03:54:27;95003.09;;;7.90;100.00
5500;BME280;2772;42.700;23.304;2022-12-07T03:56:57;95003.59;;;7.92;100.00
5500;BME280;2772;42.700;23.304;2022-12-07T03:59:25;94998.66;;;7.85;100.00
5500;BME280;2772;42.700;23.304;2022-12-07T04:01:55;94997.03;;;7.89;100.00
5500;BME280;2772;42.700;23.304;2022-12-07T04:04:23;95000.94;;;7.92;100.00
5500;BME280;2772;42.700;23.304;2022-12-07T04:06:51;94994.38;;;7.89;100.00
5500;BME280;2772;42.700;23.304;2022-12-07T04:09:17;94995.34;;;7.93;100.00
5500;BME280;2772;42.700;23.304;2022-12-07T04:11:44;94997.31;;;7.88;100.00
5500;BME280;2772;42.700;23.304;2022-12-07T04:14:11;94996.66;;;7.96;100.00
5500;BME280;2772;42.700;23.304;2022-12-07T04:16:51;94995.19;;;8.03;100.00
5500;BME280;2772;42.700;23.304;2022-12-07T04:19:21;94996.72;;;7.91;100.00
5500;BME280;2772;42.700;23.304;2022-12-07T04:21:48;95000.94;;;7.92;100.00
5500;BME280;2772;42.700;23.304;2022-12-07T04:24:15;94998.22;;;7.97;100.00
5500;BME280;2772;42.700;23.304;2022-12-07T04:26:42;94997.91;;;7.85;100.00
5500;BME280;2772;42.700;23.304;2022-12-07T04:29:10;95004.69;;;7.91;100.00
5500;BME280;2772;42.700;23.304;2022-12-07T04:31:37;95010.78;;;7.91;100.00
5500;BME280;2772;42.700;23.304;2022-12-07T04:34:04;95005.19;;;7.93;100.00
5500;BME280;2772;42.700;23.304;2022-12-07T04:36:33;95007.63;;;7.89;100.00
5500;BME280;2772;42.700;23.304;2022-12-07T04:39:02;94992.09;;;7.83;100.00
5500;BME280;2772;42.700;23.304;2022-12-07T04:41:29;95006.31;;;7.87;100.00
5500;BME280;2772;42.700;23.304;2022-12-07T04:43:58;94998.97;;;7.84;100.00
5500;BME280;2772;42.700;23.304;2022-12-07T04:46:27;95006.72;;;7.80;100.00
5500;BME280;2772;42.700;23.304;2022-12-07T04:48:54;95020.66;;;7.86;100.00
5500;BME280;2772;42.700;23.304;2022-12-07T04:51:23;95012.44;;;7.87;100.00
5500;BME280;2772;42.700;23.304;2022-12-07T04:53:52;95005.75;;;7.90;100.00
5500;BME280;2772;42.700;23.304;2022-12-07T04:56:19;95014.19;;;7.92;100.00
5500;BME280;2772;42.700;23.304;2022-12-07T04:58:47;95009.19;;;7.90;100.00
5500;BME280;2772;42.700;23.304;2022-12-07T05:01:15;95004.75;;;7.86;100.00
5500;BME280;2772;42.700;23.304;2022-12-07T05:03:42;95019.09;;;7.85;100.00
5500;BME280;2772;42.700;23.304;2022-12-07T05:06:09;95022.94;;;7.79;100.00
5500;BME280;2772;42.700;23.304;2022-12-07T05:08:37;95018.47;;;7.74;100.00
5500;BME280;2772;42.700;23.304;2022-12-07T05:11:07;95012.09;;;7.75;100.00
5500;BME280;2772;42.700;23.304;2022-12-07T05:13:35;95010.44;;;7.79;100.00
5500;BME280;2772;42.700;23.304;2022-12-07T05:16:02;95008.94;;;7.73;100.00
5500;BME280;2772;42.700;23.304;2022-12-07T05:18:29;95004.31;;;7.65;100.00
5500;BME280;2772;42.700;23.304;2022-12-07T05:20:56;95005.22;;;7.74;100.00
5500;BME280;2772;42.700;23.304;2022-12-07T05:23:23;95004.53;;;7.69;100.00
5500;BME280;2772;42.700;23.304;2022-12-07T05:25:50;95014.53;;;7.72;100.00
5500;BME280;2772;42.700;23.304;2022-12-07T05:28:19;95016.38;;;7.58;100.00
5500;BME280;2772;42.700;23.304;2022-12-07T05:30:46;95005.44;;;7.46;100.00
5500;BME280;2772;42.700;23.304;2022-12-07T05:33:13;95000.28;;;7.36;100.00
5500;BME280;2772;42.700;23.304;2022-12-07T05:35:45;95003.88;;;7.26;100.00
5500;BME280;2772;42.700;23.304;2022-12-07T05:38:12;95010.38;;;7.15;100.00
5500;BME280;2772;42.700;23.304;2022-12-07T05:40:39;95006.59;;;7.21;100.00
5500;BME280;2772;42.700;23.304;2022-12-07T05:43:05;95001.38;;;7.16;100.00
5500;BME280;2772;42.700;23.304;2022-12-07T05:45:33;94993.72;;;7.15;100.00
5500;BME280;2772;42.700;23.304;2022-12-07T05:48:00;94994.13;;;7.22;100.00
5500;BME280;2772;42.700;23.304;2022-12-07T05:50:29;94996.94;;;7.30;100.00
5500;BME280;2772;42.700;23.304;2022-12-07T05:52:55;94993.78;;;7.28;100.00
5500;BME280;2772;42.700;23.304;2022-12-07T05:55:22;94994.19;;;7.35;100.00
5500;BME280;2772;42.700;23.304;2022-12-07T05:57:49;94988.06;;;7.40;100.00
5500;BME280;2772;42.700;23.304;2022-12-07T06:00:29;94995.59;;;7.46;100.00
5500;BME280;2772;42.700;23.304;2022-12-07T06:02:58;94989.72;;;7.49;100.00
5500;BME280;2772;42.700;23.304;2022-12-07T06:05:24;94994.84;;;7.46;100.00
5500;BME280;2772;42.700;23.304;2022-12-07T06:07:51;94988.09;;;7.53;100.00
5500;BME280;2772;42.700;23.304;2022-12-07T06:10:18;94994.38;;;7.57;100.00
5500;BME280;2772;42.700;23.304;2022-12-07T06:12:45;94993.16;;;7.50;100.00
5500;BME280;2772;42.700;23.304;2022-12-07T06:15:12;94999.19;;;7.55;100.00
5500;BME280;2772;42.700;23.304;2022-12-07T06:17:39;95000.75;;;7.56;100.00
5500;BME280;2772;42.700;23.304;2022-12-07T06:20:10;95005.19;;;7.61;100.00
5500;BME280;2772;42.700;23.304;2022-12-07T06:22:36;94999.31;;;7.64;100.00
5500;BME280;2772;42.700;23.304;2022-12-07T06:25:04;94998.63;;;7.58;100.00
5500;BME280;2772;42.700;23.304;2022-12-07T06:27:30;94999.00;;;7.65;100.00
5500;BME280;2772;42.700;23.304;2022-12-07T06:29:58;95003.63;;;7.60;100.00
5500;BME280;2772;42.700;23.304;2022-12-07T06:32:25;95008.06;;;7.64;100.00
5500;BME280;2772;42.700;23.304;2022-12-07T06:34:51;95004.81;;;7.67;100.00
5500;BME280;2772;42.700;23.304;2022-12-07T06:37:19;95014.41;;;7.63;100.00
5500;BME280;2772;42.700;23.304;2022-12-07T06:39:47;95015.38;;;7.54;100.00
5500;BME280;2772;42.700;23.304;2022-12-07T06:42:13;95017.81;;;7.50;100.00
5500;BME280;2772;42.700;23.304;2022-12-07T06:44:40;95023.53;;;7.57;100.00
5500;BME280;2772;42.700;23.304;2022-12-07T06:47:07;95027.47;;;7.60;100.00
5500;BME280;2772;42.700;23.304;2022-12-07T06:49:34;95019.72;;;7.63;100.00
5500;BME280;2772;42.700;23.304;2022-12-07T06:52:01;95033.53;;;7.60;100.00
5500;BME280;2772;42.700;23.304;2022-12-07T06:54:31;95012.16;;;7.57;100.00
5500;BME280;2772;42.700;23.304;2022-12-07T06:56:58;95012.19;;;7.70;100.00
5500;BME280;2772;42.700;23.304;2022-12-07T06:59:25;95029.75;;;7.66;100.00
5500;BME280;2772;42.700;23.304;2022-12-07T07:01:51;95025.00;;;7.63;100.00
5500;BME280;2772;42.700;23.304;2022-12-07T07:04:20;95017.78;;;7.69;100.00
5500;BME280;2772;42.700;23.304;2022-12-07T07:06:47;95015.34;;;7.72;100.00
5500;BME280;2772;42.700;23.304;2022-12-07T07:09:14;95019.06;;;7.71;100.00
5500;BME280;2772;42.700;23.304;2022-12-07T07:11:45;95024.81;;;7.60;100.00
5500;BME280;2772;42.700;23.304;2022-12-07T07:14:12;95028.75;;;7.62;100.00
5500;BME280;2772;42.700;23.304;2022-12-07T07:16:44;95025.09;;;7.58;100.00
5500;BME280;2772;42.700;23.304;2022-12-07T07:19:11;95025.44;;;7.38;100.00
5500;BME280;2772;42.700;23.304;2022-12-07T07:21:38;95000.72;;;8.75;100.00
5500;BME280;2772;42.700;23.304;2022-12-07T07:24:05;94993.75;;;8.79;100.00
5500;BME280;2772;42.700;23.304;2022-12-07T07:26:32;94996.00;;;8.45;100.00
5500;BME280;2772;42.700;23.304;2022-12-07T07:29:00;95004.16;;;8.21;100.00
5500;BME280;2772;42.700;23.304;2022-12-07T07:31:27;95010.28;;;8.03;100.00
5500;BME280;2772;42.700;23.304;2022-12-07T07:33:54;95015.28;;;7.91;100.00
5500;BME280;2772;42.700;23.304;2022-12-07T07:36:20;95025.06;;;7.77;100.00
5500;BME280;2772;42.700;23.304;2022-12-07T07:38:47;95034.03;;;7.62;100.00
5500;BME280;2772;42.700;23.304;2022-12-07T07:41:14;95026.41;;;7.74;100.00
5500;BME280;2772;42.700;23.304;2022-12-07T07:43:41;95026.31;;;7.66;100.00
5500;BME280;2772;42.700;23.304;2022-12-07T07:46:09;95023.00;;;7.74;100.00
5500;BME280;2772;42.700;23.304;2022-12-07T07:48:36;95022.06;;;7.83;100.00
5500;BME280;2772;42.700;23.304;2022-12-07T07:51:05;95030.78;;;7.84;100.00
5500;BME280;2772;42.700;23.304;2022-12-07T07:53:32;95031.81;;;7.69;100.00
5500;BME280;2772;42.700;23.304;2022-12-07T07:55:59;95034.00;;;7.81;100.00
5500;BME280;2772;42.700;23.304;2022-12-07T07:58:27;95027.94;;;7.80;100.00
5500;BME280;2772;42.700;23.304;2022-12-07T08:00:54;95026.41;;;7.74;100.00
5500;BME280;2772;42.700;23.304;2022-12-07T08:03:22;95018.09;;;7.81;100.00
5500;BME280;2772;42.700;23.304;2022-12-07T08:05:49;95023.88;;;7.69;100.00
5500;BME280;2772;42.700;23.304;2022-12-07T08:08:16;95015.94;;;7.69;100.00
5500;BME280;2772;42.700;23.304;2022-12-07T08:10:42;95028.09;;;7.70;100.00
5500;BME280;2772;42.700;23.304;2022-12-07T08:13:09;95020.66;;;7.72;100.00
5500;BME280;2772;42.700;23.304;2022-12-07T08:15:40;95025.06;;;7.77;100.00
5500;BME280;2772;42.700;23.304;2022-12-07T08:18:07;95019.09;;;7.85;100.00
5500;BME280;2772;42.700;23.304;2022-12-07T08:20:37;95024.47;;;7.66;100.00
5500;BME280;2772;42.700;23.304;2022-12-07T08:23:06;95025.75;;;7.82;100.00
5500;BME280;2772;42.700;23.304;2022-12-07T08:25:34;95015.78;;;7.93;100.00
5500;BME280;2772;42.700;23.304;2022-12-07T08:28:01;95017.06;;;7.95;100.00
5500;BME280;2772;42.700;23.304;2022-12-07T08:30:28;95019.06;;;8.03;100.00
5500;BME280;2772;42.700;23.304;2022-12-07T08:32:56;95034.38;;;8.06;100.00
5500;BME280;2772;42.700;23.304;2022-12-07T08:35:23;95035.06;;;8.12;100.00
5500;BME280;2772;42.700;23.304;2022-12-07T08:37:52;95031.63;;;8.12;100.00
5500;BME280;2772;42.700;23.304;2022-12-07T08:40:18;95031.97;;;8.24;100.00
5500;BME280;2772;42.700;23.304;2022-12-07T08:42:48;95022.34;;;8.28;100.00
5500;BME280;2772;42.700;23.304;2022-12-07T08:45:16;95023.84;;;8.34;100.00
5500;BME280;2772;42.700;23.304;2022-12-07T08:47:47;95026.38;;;8.39;100.00
5500;BME280;2772;42.700;23.304;2022-12-07T08:50:16;95015.59;;;8.49;100.00
5500;BME280;2772;42.700;23.304;2022-12-07T08:52:43;95012.03;;;8.53;100.00
5500;BME280;2772;42.700;23.304;2022-12-07T08:55:12;95015.28;;;8.64;100.00
5500;BME280;2772;42.700;23.304;2022-12-07T08:57:39;95013.50;;;8.73;100.00
5500;BME280;2772;42.700;23.304;2022-12-07T09:00:07;95007.41;;;8.72;100.00
5500;BME280;2772;42.700;23.304;2022-12-07T09:02:35;95011.94;;;8.72;100.00
5500;BME280;2772;42.700;23.304;2022-12-07T09:05:02;95002.78;;;8.78;100.00
5500;BME280;2772;42.700;23.304;2022-12-07T09:07:30;95001.41;;;8.80;100.00
5500;BME280;2772;42.700;23.304;2022-12-07T09:09:58;95000.53;;;8.85;100.00
5500;BME280;2772;42.700;23.304;2022-12-07T09:12:26;94989.88;;;8.98;100.00
5500;BME280;2772;42.700;23.304;2022-12-07T09:14:53;94978.44;;;8.98;100.00
5500;BME280;2772;42.700;23.304;2022-12-07T09:17:20;94975.88;;;9.06;100.00
5500;BME280;2772;42.700;23.304;2022-12-07T09:19:47;94974.22;;;8.97;100.00
5500;BME280;2772;42.700;23.304;2022-12-07T09:22:13;94983.91;;;9.15;100.00
5500;BME280;2772;42.700;23.304;2022-12-07T09:24:40;94984.81;;;9.10;100.00
5500;BME280;2772;42.700;23.304;2022-12-07T09:27:07;94991.66;;;9.25;100.00
5500;BME280;2772;42.700;23.304;2022-12-07T09:29:35;94981.44;;;9.18;100.00
5500;BME280;2772;42.700;23.304;2022-12-07T09:32:03;94988.25;;;9.11;100.00
5500;BME280;2772;42.700;23.304;2022-12-07T09:34:30;94976.25;;;9.13;100.00
5500;BME280;2772;42.700;23.304;2022-12-07T09:36:57;94981.03;;;9.25;100.00
5500;BME280;2772;42.700;23.304;2022-12-07T09:39:24;94964.00;;;9.26;100.00
5500;BME280;2772;42.700;23.304;2022-12-07T09:41:51;94965.19;;;9.33;100.00
5500;BME280;2772;42.700;23.304;2022-12-07T09:44:21;94961.00;;;9.41;100.00
5500;BME280;2772;42.700;23.304;2022-12-07T09:46:51;94957.44;;;9.45;100.00
5500;BME280;2772;42.700;23.304;2022-12-07T09:49:20;94961.22;;;9.53;100.00
5500;BME280;2772;42.700;23.304;2022-12-07T09:52:00;94960.69;;;9.64;100.00
5500;BME280;2772;42.700;23.304;2022-12-07T09:54:28;94967.78;;;9.78;100.00
5500;BME280;2772;42.700;23.304;2022-12-07T09:56:56;94967.34;;;9.76;100.00
5500;BME280;2772;42.700;23.304;2022-12-07T09:59:22;94961.13;;;9.58;100.00
5500;BME280;2772;42.700;23.304;2022-12-07T10:01:51;94962.50;;;9.55;100.00
5500;BME280;2772;42.700;23.304;2022-12-07T10:04:19;94955.53;;;9.68;100.00
5500;BME280;2772;42.700;23.304;2022-12-07T10:06:47;94959.22;;;9.81;100.00
5500;BME280;2772;42.700;23.304;2022-12-07T10:09:17;94951.53;;;9.79;100.00
5500;BME280;2772;42.700;23.304;2022-12-07T10:12:05;94951.47;;;9.93;100.00
5500;BME280;2772;42.700;23.304;2022-12-07T10:14:34;94941.25;;;9.86;100.00
5500;BME280;2772;42.700;23.304;2022-12-07T10:17:29;94940.25;;;10.04;100.00
5500;BME280;2772;42.700;23.304;2022-12-07T10:20:13;94932.53;;;9.94;100.00
5500;BME280;2772;42.700;23.304;2022-12-07T10:22:54;94930.50;;;10.22;100.00
5500;BME280;2772;42.700;23.304;2022-12-07T10:25:22;94922.25;;;10.32;100.00
5500;BME280;2772;42.700;23.304;2022-12-07T10:27:57;94927.88;;;10.39;100.00
5500;BME280;2772;42.700;23.304;2022-12-07T10:30:25;94911.28;;;10.33;100.00
5500;BME280;2772;42.700;23.304;2022-12-07T10:32:53;94917.84;;;10.27;100.00
5500;BME280;2772;42.700;23.304;2022-12-07T10:35:23;94912.84;;;10.34;100.00
5500;BME280;2772;42.700;23.304;2022-12-07T10:37:51;94908.28;;;10.26;100.00
5500;BME280;2772;42.700;23.304;2022-12-07T10:40:27;94912.47;;;10.19;100.00
5500;BME280;2772;42.700;23.304;2022-12-07T10:43:03;94897.50;;;10.31;100.00
5500;BME280;2772;42.700;23.304;2022-12-07T10:45:30;94905.97;;;10.42;100.00
5500;BME280;2772;42.700;23.304;2022-12-07T10:48:05;94903.00;;;10.43;100.00
5500;BME280;2772;42.700;23.304;2022-12-07T10:50:57;94902.22;;;10.43;100.00
5500;BME280;2772;42.700;23.304;2022-12-07T10:53:38;94898.75;;;10.34;100.00
5500;BME280;2772;42.700;23.304;2022-12-07T10:56:29;94888.88;;;10.34;100.00
5500;BME280;2772;42.700;23.304;2022-12-07T10:59:14;94889.38;;;10.36;100.00
5500;BME280;2772;42.700;23.304;2022-12-07T11:01:50;94881.84;;;10.38;100.00
5500;BME280;2772;42.700;23.304;2022-12-07T11:04:26;94877.03;;;10.49;100.00
5500;BME280;2772;42.700;23.304;2022-12-07T11:07:00;94881.56;;;10.48;100.00
5500;BME280;2772;42.700;23.304;2022-12-07T11:09:49;94869.81;;;10.58;100.00
5500;BME280;2772;42.700;23.304;2022-12-07T11:12:29;94860.75;;;10.59;100.00
5500;BME280;2772;42.700;23.304;2022-12-07T11:15:08;94866.56;;;10.69;100.00
5500;BME280;2772;42.700;23.304;2022-12-07T11:17:45;94868.28;;;10.74;100.00
5500;BME280;2772;42.700;23.304;2022-12-07T11:20:27;94856.53;;;10.75;100.00
5500;BME280;2772;42.700;23.304;2022-12-07T11:23:00;94856.06;;;10.81;100.00
5500;BME280;2772;42.700;23.304;2022-12-07T11:25:32;94856.81;;;10.82;100.00
5500;BME280;2772;42.700;23.304;2022-12-07T11:28:15;94849.00;;;10.77;100.00
5500;BME280;2772;42.700;23.304;2022-12-07T11:30:53;94847.13;;;10.77;100.00
5500;BME280;2772;42.700;23.304;2022-12-07T11:33:28;94850.09;;;10.84;100.00
5500;BME280;2772;42.700;23.304;2022-12-07T11:36:06;94837.41;;;10.90;100.00
5500;BME280;2772;42.700;23.304;2022-12-07T11:38:42;94826.44;;;10.91;100.00
5500;BME280;2772;42.700;23.304;2022-12-07T11:41:10;94833.31;;;11.01;100.00
5500;BME280;2772;42.700;23.304;2022-12-07T11:43:55;94841.03;;;10.94;100.00
5500;BME280;2772;42.700;23.304;2022-12-07T11:46:25;94840.69;;;11.04;100.00
5500;BME280;2772;42.700;23.304;2022-12-07T11:48:59;94845.53;;;11.10;100.00
5500;BME280;2772;42.700;23.304;2022-12-07T11:51:33;94850.88;;;11.19;100.00
5500;BME280;2772;42.700;23.304;2022-12-07T11:54:03;94841.13;;;11.23;100.00
5500;BME280;2772;42.700;23.304;2022-12-07T11:56:34;94832.34;;;11.22;100.00
5500;BME280;2772;42.700;23.304;2022-12-07T11:59:09;94824.97;;;11.19;100.00
5500;BME280;2772;42.700;23.304;2022-12-07T12:01:48;94820.59;;;11.23;100.00
5500;BME280;2772;42.700;23.304;2022-12-07T12:04:27;94819.66;;;11.28;100.00
5500;BME280;2772;42.700;23.304;2022-12-07T12:06:57;94824.03;;;11.33;100.00
5500;BME280;2772;42.700;23.304;2022-12-07T12:09:27;94810.84;;;11.27;100.00
5500;BME280;2772;42.700;23.304;2022-12-07T12:12:14;94811.19;;;11.26;100.00
5500;BME280;2772;42.700;23.304;2022-12-07T12:14:59;94807.59;;;11.22;100.00
5500;BME280;2772;42.700;23.304;2022-12-07T12:17:47;94806.47;;;11.23;100.00
5500;BME280;2772;42.700;23.304;2022-12-07T12:20:21;94810.09;;;11.18;100.00
5500;BME280;2772;42.700;23.304;2022-12-07T12:22:54;94800.72;;;11.12;100.00
5500;BME280;2772;42.700;23.304;2022-12-07T12:25:26;94799.13;;;11.20;100.00
5500;BME280;2772;42.700;23.304;2022-12-07T12:27:55;94800.84;;;11.24;100.00
5500;BME280;2772;42.700;23.304;2022-12-07T12:30:32;94793.00;;;11.19;100.00
5500;BME280;2772;42.700;23.304;2022-12-07T12:33:04;94789.53;;;11.27;100.00
5500;BME280;2772;42.700;23.304;2022-12-07T12:35:34;94782.16;;;11.33;100.00
5500;BME280;2772;42.700;23.304;2022-12-07T12:38:33;94771.75;;;11.49;100.00
5500;BME280;2772;42.700;23.304;2022-12-07T12:41:01;94771.75;;;11.49;100.00
5500;BME280;2772;42.700;23.304;2022-12-07T12:46:48;94768.59;;;11.55;100.00
5500;BME280;2772;42.700;23.304;2022-12-07T12:49:43;94775.28;;;11.70;100.00
5500;BME280;2772;42.700;23.304;2022-12-07T12:55:53;94778.63;;;11.58;100.00
5500;BME280;2772;42.700;23.304;2022-12-07T12:58:38;94768.88;;;11.71;100.00
5500;BME280;2772;42.700;23.304;2022-12-07T13:04:37;94780.94;;;11.77;100.00
5500;BME280;2772;42.700;23.304;2022-12-07T13:07:11;94773.25;;;11.75;100.00
5500;BME280;2772;42.700;23.304;2022-12-07T13:09:43;94780.94;;;11.77;100.00
5500;BME280;2772;42.700;23.304;2022-12-07T13:12:15;94780.09;;;11.85;100.00
5500;BME280;2772;42.700;23.304;2022-12-07T13:14:57;94776.31;;;11.86;100.00
5500;BME280;2772;42.700;23.304;2022-12-07T13:17:57;94777.13;;;11.86;100.00
5500;BME280;2772;42.700;23.304;2022-12-07T13:20:56;94776.16;;;11.91;100.00
5500;BME280;2772;42.700;23.304;2022-12-07T13:23:29;94773.81;;;11.89;100.00
5500;BME280;2772;42.700;23.304;2022-12-07T13:26:14;94769.88;;;11.87;100.00
5500;BME280;2772;42.700;23.304;2022-12-07T13:28:45;94771.94;;;11.81;100.00
5500;BME280;2772;42.700;23.304;2022-12-07T13:31:32;94772.41;;;11.83;100.00
5500;BME280;2772;42.700;23.304;2022-12-07T13:34:01;94772.53;;;11.87;100.00
5500;BME280;2772;42.700;23.304;2022-12-07T13:36:30;94766.13;;;11.88;100.00
5500;BME280;2772;42.700;23.304;2022-12-07T13:39:18;94754.81;;;11.91;100.00
5500;BME280;2772;42.700;23.304;2022-12-07T13:41:50;94759.34;;;11.90;100.00